Time;durP1;ratioP1;P1;durP2;ratioP2;P2;SDS_P1;SDS_P2;PMS_P1;PMS_P2;Temp;Humidity;BMP_temperature;BMP_pressure;BME280_temperature;BME280_humidity;BME280_pressure;Samples;Min_cycle;Max_cycle;Signal;HPM_P1;HPM_P2
2022/01/16 00:04:16;;;;;;;;;;;2.80;99.90;;;;;;5125643;27;19934;-65
2022/01/16 00:06:43;;;;;;;;;;;2.70;99.90;;;;;;5131044;27;19927;-60
2022/01/16 00:09:09;;;;;;;;;;;2.70;99.90;;;;;;5132273;27;19923;-63
2022/01/16 00:11:35;;;;;;;;;;;2.20;99.90;;;;;;5140184;27;19935;-66
2022/01/16 00:14:02;;;;;;;;;;;2.70;99.90;;;;;;5131667;27;19933;-66
2022/01/16 00:16:28;;;;;;;;;;;2.60;99.90;;;;;;5144460;27;20411;-63
2022/01/16 00:18:54;;;;;;;;;;;2.70;99.90;;;;;;5132024;27;19974;-67
2022/01/16 00:21:22;;;;;;;;;;;2.60;99.90;;;;;;5142831;27;20409;-66
2022/01/16 00:23:48;;;;;;;;;;;2.60;99.90;;;;;;5138825;27;20520;-60
2022/01/16 00:26:14;;;;;;;;;;;2.90;99.90;;;;;;5142861;27;19974;-63
2022/01/16 00:28:39;;;;;;;;;;;2.90;99.90;;;;;;5132193;27;20417;-65
2022/01/16 00:31:05;;;;;;;;;;;2.50;99.90;;;;;;5144848;27;19966;-67
2022/01/16 00:33:31;;;;;;;;;;;2.40;99.90;;;;;;5135715;27;19930;-60
2022/01/16 00:35:56;;;;;;;;;;;2.40;99.90;;;;;;5136775;27;19972;-60
2022/01/16 00:38:22;;;;;;;;;;;2.40;99.90;;;;;;5142621;27;20023;-59
2022/01/16 00:40:47;;;;;;;;;;;2.20;99.90;;;;;;5142137;27;20368;-56
2022/01/16 00:43:14;;;;;;;;;;;2.20;99.90;;;;;;5130778;27;19938;-55
2022/01/16 00:45:40;;;;;;;;;;;2.30;99.90;;;;;;5139684;27;19923;-55
2022/01/16 00:48:05;;;;;;;;;;;2.20;99.90;;;;;;5141688;27;19969;-56
2022/01/16 00:50:32;;;;;;;;;;;2.20;99.90;;;;;;5131974;27;20004;-56
2022/01/16 00:52:58;;;;;;;;;;;2.20;99.90;;;;;;5145499;27;19932;-56
2022/01/16 00:55:23;;;;;;;;;;;2.20;99.90;;;;;;5135602;27;19935;-56
2022/01/16 00:57:49;;;;;;;;;;;3.00;99.90;;;;;;5137789;27;19928;-57
2022/01/16 01:00:15;;;;;;;;;;;2.20;99.90;;;;;;5142936;27;20352;-56
2022/01/16 01:02:40;;;;;;;;;;;2.10;99.90;;;;;;5131125;27;19934;-56
2022/01/16 01:05:07;;;;;;;;;;;2.20;99.90;;;;;;5126519;28;19980;-56
2022/01/16 01:07:33;;;;;;;;;;;2.20;99.90;;;;;;5139575;27;19927;-56
2022/01/16 01:09:58;;;;;;;;;;;2.20;99.90;;;;;;5140728;27;19930;-55
2022/01/16 01:12:33;;;;;;;;;;;2.20;99.90;;;;;;5147215;27;19927;-56
2022/01/16 01:15:07;;;;;;;;;;;2.10;99.90;;;;;;5132249;27;20293;-56
2022/01/16 01:17:37;;;;;;;;;;;2.10;99.90;;;;;;5141198;27;20025;-56
2022/01/16 01:20:03;;;;;;;;;;;2.10;99.90;;;;;;5139788;27;19927;-56
2022/01/16 01:22:29;;;;;;;;;;;2.00;99.90;;;;;;5144881;27;20348;-56
2022/01/16 01:24:55;;;;;;;;;;;2.00;99.90;;;;;;5145160;27;20006;-59
2022/01/16 01:27:29;;;;;;;;;;;2.00;99.90;;;;;;5146324;27;19927;-59
2022/01/16 01:30:01;;;;;;;;;;;1.90;99.90;;;;;;5142055;27;19934;-57
2022/01/16 01:32:27;;;;;;;;;;;1.90;99.90;;;;;;5136562;27;19969;-58
2022/01/16 01:34:53;;;;;;;;;;;2.60;99.90;;;;;;5147704;27;19935;-58
2022/01/16 01:37:18;;;;;;;;;;;1.90;99.90;;;;;;5138617;27;19934;-60
2022/01/16 01:39:44;;;;;;;;;;;2.00;99.90;;;;;;5149214;27;19934;-56
2022/01/16 01:42:12;;;;;;;;;;;1.90;99.90;;;;;;5137315;27;20022;-56
2022/01/16 01:52:53;;;;;;;;;;;1.80;99.90;;;;;;5148652;27;19938;-55
2022/01/16 01:55:20;;;;;;;;;;;1.80;99.90;;;;;;5137878;27;19927;-56
2022/01/16 01:57:45;;;;;;;;;;;1.80;99.90;;;;;;5141937;27;19928;-56
2022/01/16 02:00:17;;;;;;;;;;;1.80;99.90;;;;;;5145370;27;19926;-55
2022/01/16 02:05:21;;;;;;;;;;;1.80;99.90;;;;;;5131581;27;19928;-55
2022/01/16 02:07:47;;;;;;;;;;;1.90;99.90;;;;;;5144030;27;20463;-56
2022/01/16 02:10:12;;;;;;;;;;;1.90;99.90;;;;;;5137562;27;19927;-56
2022/01/16 02:12:42;;;;;;;;;;;1.90;99.90;;;;;;5148014;27;19927;-56
2022/01/16 02:15:33;;;;;;;;;;;1.90;99.90;;;;;;5132249;27;19974;-56
2022/01/16 02:29:28;;;;;;;;;;;1.80;99.90;;;;;;5148238;27;19996;-55
2022/01/16 02:31:42;;;;;;;;;;;1.90;99.90;;;;;;5131643;27;20300;-55
2022/01/16 02:36:56;;;;;;;;;;;1.90;99.90;;;;;;5132328;27;19973;-56
2022/01/16 02:39:25;;;;;;;;;;;1.90;99.90;;;;;;5147921;27;19934;-56
2022/01/16 02:41:53;;;;;;;;;;;1.90;99.90;;;;;;5140141;27;20304;-56
2022/01/16 02:44:30;;;;;;;;;;;2.00;99.90;;;;;;5130431;27;19928;-56
2022/01/16 02:46:56;;;;;;;;;;;2.80;99.90;;;;;;5147637;27;19927;-57
2022/01/16 02:49:25;;;;;;;;;;;2.00;99.90;;;;;;5137160;27;19927;-56
2022/01/16 02:51:55;;;;;;;;;;;2.00;99.90;;;;;;5140148;27;19927;-56
2022/01/16 02:54:21;;;;;;;;;;;2.00;99.90;;;;;;5146059;27;19927;-58
2022/01/16 02:56:48;;;;;;;;;;;2.00;99.90;;;;;;5134201;27;19927;-58
2022/01/16 02:59:14;;;;;;;;;;;2.00;99.90;;;;;;5145634;27;19927;-56
2022/01/16 03:01:40;;;;;;;;;;;2.00;99.90;;;;;;5139686;27;20333;-59
2022/01/16 03:04:05;;;;;;;;;;;2.00;99.90;;;;;;5150709;27;19927;-58
2022/01/16 03:06:31;;;;;;;;;;;2.20;99.90;;;;;;5133491;27;19979;-59
2022/01/16 03:08:57;;;;;;;;;;;2.00;99.90;;;;;;5146536;27;20397;-58
2022/01/16 03:13:57;;;;;;;;;;;1.90;99.90;;;;;;5138996;27;19933;-58
2022/01/16 03:16:22;;;;;;;;;;;2.30;99.90;;;;;;5134675;27;19927;-59
2022/01/16 03:21:54;;;;;;;;;;;1.90;99.90;;;;;;5142317;27;19934;-59
2022/01/16 03:24:27;;;;;;;;;;;2.00;99.90;;;;;;5139926;27;20361;-56
2022/01/16 03:26:57;;;;;;;;;;;1.90;99.90;;;;;;5146203;27;19993;-58
2022/01/16 03:29:24;;;;;;;;;;;1.90;99.90;;;;;;5137253;27;20013;-59
2022/01/16 03:31:49;;;;;;;;;;;1.90;99.90;;;;;;5139197;27;20045;-58
2022/01/16 03:34:15;;;;;;;;;;;1.90;99.90;;;;;;5144125;27;20037;-57
2022/01/16 03:36:40;;;;;;;;;;;1.90;99.90;;;;;;5133077;27;20400;-59
2022/01/16 03:39:06;;;;;;;;;;;1.90;99.90;;;;;;5142499;27;19951;-60
2022/01/16 03:41:34;;;;;;;;;;;1.90;99.90;;;;;;5141897;27;19927;-59
2022/01/16 03:44:02;;;;;;;;;;;1.90;99.90;;;;;;5142068;27;19930;-59
2022/01/16 03:46:34;;;;;;;;;;;1.90;99.90;;;;;;5133343;27;19942;-56
2022/01/16 03:49:00;;;;;;;;;;;1.90;99.90;;;;;;5133385;27;19934;-55
2022/01/16 03:51:26;;;;;;;;;;;2.00;99.90;;;;;;5142167;27;20369;-56
2022/01/16 03:53:51;;;;;;;;;;;2.00;99.90;;;;;;5140408;27;19927;-56
2022/01/16 03:56:17;;;;;;;;;;;2.00;99.90;;;;;;5134863;27;20265;-56
2022/01/16 03:58:42;;;;;;;;;;;2.00;99.90;;;;;;5144690;27;20031;-56
2022/01/16 04:01:08;;;;;;;;;;;2.00;99.90;;;;;;5133792;27;19927;-56
2022/01/16 04:03:34;;;;;;;;;;;2.00;99.90;;;;;;5149302;27;20274;-56
2022/01/16 04:06:01;;;;;;;;;;;2.00;99.90;;;;;;5137521;27;19927;-58
2022/01/16 04:08:27;;;;;;;;;;;2.00;99.90;;;;;;5143791;27;19934;-56
2022/01/16 04:10:52;;;;;;;;;;;2.10;99.90;;;;;;5132291;27;19930;-55
2022/01/16 04:13:21;;;;;;;;;;;2.00;99.90;;;;;;5146505;27;19927;-56
2022/01/16 04:15:46;;;;;;;;;;;2.00;99.90;;;;;;5137860;27;19924;-56
2022/01/16 04:18:12;;;;;;;;;;;2.00;99.90;;;;;;5141525;27;19927;-57
2022/01/16 04:20:37;;;;;;;;;;;2.10;99.90;;;;;;5131774;27;19939;-56
2022/01/16 04:23:03;;;;;;;;;;;2.10;99.90;;;;;;5143998;27;19932;-56
2022/01/16 04:25:29;;;;;;;;;;;2.70;99.90;;;;;;5135658;27;19933;-56
2022/01/16 04:27:55;;;;;;;;;;;2.10;99.90;;;;;;5140874;27;20282;-56
2022/01/16 04:30:20;;;;;;;;;;;2.10;99.90;;;;;;5134116;27;20014;-56
2022/01/16 04:32:46;;;;;;;;;;;2.10;99.90;;;;;;5131229;27;20023;-57
2022/01/16 04:35:11;;;;;;;;;;;2.10;99.90;;;;;;5142673;27;19927;-56
2022/01/16 04:37:37;;;;;;;;;;;2.20;99.90;;;;;;5137857;27;20368;-56
2022/01/16 04:40:04;;;;;;;;;;;2.20;99.90;;;;;;5145760;27;19927;-56
2022/01/16 04:45:14;;;;;;;;;;;2.20;99.90;;;;;;5141238;27;19979;-55
2022/01/16 04:47:40;;;;;;;;;;;2.20;99.90;;;;;;5145103;27;19946;-55
2022/01/16 04:50:06;;;;;;;;;;;2.20;99.90;;;;;;5148693;27;19927;-55
2022/01/16 04:52:32;;;;;;;;;;;2.20;99.90;;;;;;5138885;27;20030;-56
2022/01/16 04:54:57;;;;;;;;;;;2.30;99.90;;;;;;5152108;27;20022;-55
2022/01/16 04:57:23;;;;;;;;;;;2.30;99.90;;;;;;5142788;27;19927;-56
2022/01/16 04:59:49;;;;;;;;;;;2.30;99.90;;;;;;5144985;27;20464;-56
2022/01/16 05:02:14;;;;;;;;;;;2.30;99.90;;;;;;5149721;27;19927;-56
2022/01/16 05:04:40;;;;;;;;;;;2.30;99.90;;;;;;5152043;27;19979;-55
2022/01/16 05:07:05;;;;;;;;;;;2.40;99.90;;;;;;5139639;27;19934;-56
2022/01/16 05:09:31;;;;;;;;;;;2.50;99.90;;;;;;5143437;27;19923;-56
2022/01/16 05:11:57;;;;;;;;;;;2.40;99.90;;;;;;5144025;27;19927;-56
2022/01/16 05:17:15;;;;;;;;;;;2.40;99.90;;;;;;5117758;27;20011;-65
2022/01/16 05:19:40;;;;;;;;;;;2.40;99.90;;;;;;5143571;27;20009;-63
2022/01/16 05:22:06;;;;;;;;;;;2.40;99.90;;;;;;5141207;27;19928;-63
2022/01/16 05:24:34;;;;;;;;;;;2.40;99.90;;;;;;5145016;27;20236;-64
2022/01/16 05:27:00;;;;;;;;;;;2.40;99.90;;;;;;5139132;27;20050;-64
2022/01/16 05:29:25;;;;;;;;;;;2.50;99.90;;;;;;5147559;27;19931;-62
2022/01/16 05:31:51;;;;;;;;;;;2.50;99.90;;;;;;5135928;27;19976;-63
2022/01/16 05:34:21;;;;;;;;;;;2.00;99.90;;;;;;5149909;27;19927;-65
2022/01/16 05:36:47;;;;;;;;;;;2.50;99.90;;;;;;5138121;27;20137;-64
2022/01/16 05:39:13;;;;;;;;;;;2.60;99.90;;;;;;5152466;27;20430;-56
2022/01/16 05:41:39;;;;;;;;;;;2.60;99.90;;;;;;5146082;27;20002;-56
2022/01/16 05:44:04;;;;;;;;;;;2.60;99.90;;;;;;5148335;27;19927;-56
2022/01/16 05:46:30;;;;;;;;;;;2.60;99.90;;;;;;5138573;27;19942;-55
2022/01/16 05:48:55;;;;;;;;;;;2.60;99.90;;;;;;5152147;27;19934;-56
2022/01/16 05:51:21;;;;;;;;;;;2.20;99.90;;;;;;5141409;27;19926;-56
2022/01/16 05:53:51;;;;;;;;;;;2.70;99.90;;;;;;5142669;27;20734;-56
2022/01/16 05:56:16;;;;;;;;;;;2.70;99.90;;;;;;5145139;27;20357;-55
2022/01/16 05:58:42;;;;;;;;;;;2.70;99.90;;;;;;5133850;27;20031;-57
2022/01/16 06:01:08;;;;;;;;;;;2.70;99.90;;;;;;5147077;27;19931;-56
2022/01/16 06:03:34;;;;;;;;;;;2.70;99.90;;;;;;5130156;27;20377;-56
2022/01/16 06:05:59;;;;;;;;;;;2.70;99.90;;;;;;5132760;27;19928;-56
2022/01/16 06:08:25;;;;;;;;;;;3.00;99.90;;;;;;5134670;27;19927;-58
2022/01/16 06:10:50;;;;;;;;;;;3.40;99.90;;;;;;5148398;27;20340;-55
2022/01/16 06:13:16;;;;;;;;;;;2.70;99.90;;;;;;5134240;27;19934;-62
2022/01/16 06:15:42;;;;;;;;;;;3.60;99.90;;;;;;5140434;27;20335;-62
2022/01/16 06:18:07;;;;;;;;;;;2.80;99.90;;;;;;5129788;27;20050;-61
2022/01/16 06:20:33;;;;;;;;;;;2.80;99.90;;;;;;5148460;27;19927;-58
2022/01/16 06:23:00;;;;;;;;;;;2.80;99.90;;;;;;5134618;27;19931;-58
2022/01/16 06:25:26;;;;;;;;;;;3.30;99.90;;;;;;5144605;27;19933;-64
2022/01/16 06:27:51;;;;;;;;;;;2.80;99.90;;;;;;5140378;27;19928;-57
2022/01/16 06:30:17;;;;;;;;;;;2.80;99.90;;;;;;5146117;27;19931;-60
2022/01/16 06:32:43;;;;;;;;;;;2.80;99.90;;;;;;5134413;27;20464;-60
2022/01/16 06:35:09;;;;;;;;;;;2.80;99.90;;;;;;5145955;27;19967;-59
2022/01/16 06:37:35;;;;;;;;;;;2.90;99.90;;;;;;5139252;27;19931;-58
2022/01/16 06:40:01;;;;;;;;;;;3.40;99.90;;;;;;5148158;27;20295;-64
2022/01/16 06:42:27;;;;;;;;;;;2.90;99.90;;;;;;5135529;27;19984;-68
2022/01/16 06:44:53;;;;;;;;;;;2.90;99.90;;;;;;5147195;27;20322;-64
2022/01/16 06:47:18;;;;;;;;;;;2.90;99.90;;;;;;5135698;27;19953;-65
2022/01/16 06:49:44;;;;;;;;;;;3.00;99.90;;;;;;5141086;27;19976;-67
2022/01/16 06:52:10;;;;;;;;;;;3.20;99.90;;;;;;5142486;27;19962;-68
2022/01/16 06:54:35;;;;;;;;;;;3.10;99.90;;;;;;5133129;27;19934;-57
2022/01/16 06:57:01;;;;;;;;;;;3.00;99.90;;;;;;5146399;27;20296;-62
2022/01/16 06:59:26;;;;;;;;;;;3.00;99.90;;;;;;5137580;27;19934;-61
2022/01/16 07:01:52;;;;;;;;;;;3.10;99.90;;;;;;5139664;27;19935;-64
2022/01/16 07:04:18;;;;;;;;;;;3.10;99.90;;;;;;5130326;27;19938;-56
2022/01/16 07:06:43;;;;;;;;;;;3.10;99.90;;;;;;5135868;27;19927;-59
2022/01/16 07:09:09;;;;;;;;;;;3.90;99.90;;;;;;5135269;27;19927;-59
2022/01/16 07:11:34;;;;;;;;;;;3.20;99.90;;;;;;5139801;27;19980;-57
2022/01/16 07:14:00;;;;;;;;;;;3.20;99.90;;;;;;5137503;27;20380;-57
2022/01/16 07:16:25;;;;;;;;;;;3.20;99.90;;;;;;5134351;27;19927;-56
2022/01/16 07:18:51;;;;;;;;;;;3.30;99.90;;;;;;5132533;27;19933;-61
2022/01/16 07:21:16;;;;;;;;;;;3.30;99.90;;;;;;5144487;27;19927;-59
2022/01/16 07:23:43;;;;;;;;;;;3.60;99.90;;;;;;5121267;27;19931;-63
2022/01/16 07:26:09;;;;;;;;;;;3.70;99.90;;;;;;5142556;27;19979;-56
2022/01/16 07:28:35;;;;;;;;;;;3.40;99.90;;;;;;5132478;27;19923;-59
2022/01/16 07:31:00;;;;;;;;;;;3.40;99.90;;;;;;5146650;27;19984;-62
2022/01/16 07:33:26;;;;;;;;;;;3.40;99.90;;;;;;5135057;27;20350;-59
2022/01/16 07:35:51;;;;;;;;;;;3.40;99.90;;;;;;5132478;27;19927;-57
2022/01/16 07:38:17;;;;;;;;;;;3.50;99.90;;;;;;5144021;27;19934;-64
2022/01/16 07:40:43;;;;;;;;;;;3.50;99.90;;;;;;5131229;27;19935;-64
2022/01/16 07:43:08;;;;;;;;;;;3.50;99.90;;;;;;5133826;27;19980;-56
2022/01/16 07:45:34;;;;;;;;;;;3.60;99.90;;;;;;5139082;27;20301;-56
2022/01/16 07:48:00;;;;;;;;;;;3.60;99.90;;;;;;5141163;27;19972;-56
2022/01/16 07:50:26;;;;;;;;;;;3.60;99.90;;;;;;5133759;27;19955;-67
2022/01/16 07:52:51;;;;;;;;;;;3.60;99.90;;;;;;5145855;27;19934;-57
2022/01/16 07:55:18;;;;;;;;;;;3.60;99.90;;;;;;5135111;27;20431;-57
2022/01/16 07:57:44;;;;;;;;;;;3.70;99.90;;;;;;5138989;27;19927;-58
2022/01/16 08:00:10;;;;;;;;;;;3.70;99.90;;;;;;5136388;27;19934;-60
2022/01/16 08:02:36;;;;;;;;;;;3.70;99.90;;;;;;5143458;27;19927;-59
2022/01/16 08:05:02;;;;;;;;;;;3.70;99.90;;;;;;5144198;27;19927;-61
2022/01/16 08:07:27;;;;;;;;;;;3.80;99.90;;;;;;5134810;27;20416;-58
2022/01/16 08:09:53;;;;;;;;;;;4.10;99.90;;;;;;5135059;27;19926;-61
2022/01/16 08:12:18;;;;;;;;;;;3.90;99.90;;;;;;5133916;27;19927;-58
2022/01/16 08:14:44;;;;;;;;;;;4.00;99.90;;;;;;5142571;27;19927;-60
2022/01/16 08:17:10;;;;;;;;;;;3.90;99.90;;;;;;5133587;27;19971;-64
2022/01/16 08:19:35;;;;;;;;;;;3.90;99.90;;;;;;5138999;27;19927;-59
2022/01/16 08:22:01;;;;;;;;;;;4.40;99.90;;;;;;5141251;27;19927;-59
2022/01/16 08:24:27;;;;;;;;;;;4.50;99.90;;;;;;5132475;27;20245;-59
2022/01/16 08:26:52;;;;;;;;;;;4.00;99.90;;;;;;5144375;27;19927;-65
2022/01/16 08:29:19;;;;;;;;;;;4.00;99.90;;;;;;5131748;27;19931;-60
2022/01/16 08:31:44;;;;;;;;;;;4.10;99.90;;;;;;5138165;27;19927;-62
2022/01/16 08:34:10;;;;;;;;;;;4.10;99.90;;;;;;5134420;27;20273;-62
2022/01/16 08:36:36;;;;;;;;;;;4.20;99.90;;;;;;5144122;27;20025;-59
2022/01/16 08:39:02;;;;;;;;;;;4.40;99.90;;;;;;5131537;27;19934;-58
2022/01/16 08:41:27;;;;;;;;;;;4.50;99.90;;;;;;5134996;27;19927;-64
2022/01/16 08:43:53;;;;;;;;;;;4.30;99.90;;;;;;5136457;27;19928;-61
2022/01/16 08:46:20;;;;;;;;;;;4.40;99.90;;;;;;5134607;27;19957;-58
2022/01/16 08:48:46;;;;;;;;;;;4.90;99.90;;;;;;5143959;27;20301;-59
2022/01/16 08:51:13;;;;;;;;;;;4.40;99.90;;;;;;5133841;27;19926;-59
2022/01/16 08:53:38;;;;;;;;;;;4.40;99.90;;;;;;5139067;27;19932;-61
2022/01/16 08:56:04;;;;;;;;;;;4.50;99.90;;;;;;5135711;27;19927;-64
2022/01/16 08:58:30;;;;;;;;;;;4.60;99.90;;;;;;5137517;27;19999;-65
2022/01/16 09:00:55;;;;;;;;;;;4.60;99.90;;;;;;5134633;27;19928;-63
2022/01/16 09:03:21;;;;;;;;;;;4.80;99.90;;;;;;5133907;27;19927;-62
2022/01/16 09:05:48;;;;;;;;;;;4.80;99.90;;;;;;5146847;27;20360;-64
2022/01/16 09:08:14;;;;;;;;;;;4.90;99.90;;;;;;5125838;27;19927;-65
2022/01/16 09:10:41;;;;;;;;;;;4.90;99.90;;;;;;5131812;27;19971;-58
2022/01/16 09:13:11;;;;;;;;;;;5.00;99.90;;;;;;5128659;27;19935;-58
2022/01/16 09:15:38;;;;;;;;;;;5.00;99.90;;;;;;5131364;27;20539;-62
2022/01/16 09:18:04;;;;;;;;;;;7.00;99.90;;;;;;5138716;27;20411;-59
2022/01/16 09:20:30;;;;;;;;;;;5.20;99.90;;;;;;5132723;27;19927;-58
2022/01/16 09:22:55;;;;;;;;;;;5.30;99.90;;;;;;5128263;27;19935;-59
2022/01/16 09:25:22;;;;;;;;;;;5.40;99.90;;;;;;5126975;27;20389;-58
2022/01/16 09:27:48;;;;;;;;;;;5.50;99.90;;;;;;5126018;27;19927;-58
2022/01/16 09:30:14;;;;;;;;;;;5.60;99.90;;;;;;5129889;27;20423;-61
2022/01/16 09:32:39;;;;;;;;;;;5.70;99.90;;;;;;5130817;27;19979;-63
2022/01/16 09:35:06;;;;;;;;;;;5.70;99.90;;;;;;5146717;27;19978;-62
2022/01/16 09:37:32;;;;;;;;;;;5.70;99.90;;;;;;5128480;27;20026;-62
2022/01/16 09:39:59;;;;;;;;;;;5.70;99.90;;;;;;5135529;27;20428;-60
2022/01/16 09:42:25;;;;;;;;;;;5.80;99.90;;;;;;5132928;27;20258;-59
2022/01/16 09:44:51;;;;;;;;;;;5.70;99.90;;;;;;5130180;27;20299;-58
2022/01/16 09:47:17;;;;;;;;;;;5.90;99.90;;;;;;5137309;27;20234;-68
2022/01/16 09:49:43;;;;;;;;;;;5.80;99.90;;;;;;5136952;27;19955;-57
2022/01/16 09:52:09;;;;;;;;;;;5.80;99.90;;;;;;5131127;27;20038;-62
2022/01/16 09:54:38;;;;;;;;;;;5.80;99.90;;;;;;5133372;27;20096;-56
2022/01/16 09:57:04;;;;;;;;;;;5.80;99.90;;;;;;5132368;27;20334;-58
2022/01/16 09:59:29;;;;;;;;;;;5.80;99.90;;;;;;5133530;27;19968;-68
2022/01/16 10:01:55;;;;;;;;;;;5.80;99.90;;;;;;5130378;27;19928;-57
2022/01/16 10:04:38;;;;;;;;;;;6.00;99.90;;;;;;5130474;27;19927;-57
2022/01/16 10:07:06;;;;;;;;;;;5.80;99.90;;;;;;5133119;27;20106;-57
2022/01/16 10:09:33;;;;;;;;;;;5.70;99.90;;;;;;5131742;27;19927;-58
2022/01/16 10:12:02;;;;;;;;;;;5.70;99.90;;;;;;5128478;27;20189;-56
2022/01/16 10:14:35;;;;;;;;;;;5.70;99.90;;;;;;5131680;27;19928;-57
2022/01/16 10:17:11;;;;;;;;;;;5.70;99.90;;;;;;5127547;27;20010;-56
2022/01/16 10:19:37;;;;;;;;;;;5.70;99.90;;;;;;5128296;27;19927;-59
2022/01/16 10:22:04;;;;;;;;;;;5.80;99.90;;;;;;5131325;27;19958;-57
2022/01/16 10:24:30;;;;;;;;;;;5.80;99.90;;;;;;5126838;27;20002;-56
2022/01/16 10:27:08;;;;;;;;;;;5.90;99.90;;;;;;5141434;27;19928;-56
2022/01/16 10:29:35;;;;;;;;;;;5.90;99.90;;;;;;5135444;27;20333;-56
2022/01/16 10:32:11;;;;;;;;;;;5.90;99.90;;;;;;5147069;27;19972;-55
2022/01/16 10:34:37;;;;;;;;;;;5.90;99.90;;;;;;5133310;27;20343;-55
2022/01/16 10:37:17;;;;;;;;;;;6.00;99.90;;;;;;5130220;27;19927;-57
2022/01/16 10:39:57;;;;;;;;;;;6.10;99.90;;;;;;5128985;27;19972;-57
2022/01/16 10:42:23;;;;;;;;;;;6.00;99.90;;;;;;5135503;27;19927;-56
2022/01/16 10:44:56;;;;;;;;;;;6.10;99.90;;;;;;5127503;27;19970;-56
2022/01/16 10:47:29;;;;;;;;;;;6.10;99.90;;;;;;5141794;27;20548;-56
2022/01/16 10:50:06;;;;;;;;;;;6.10;99.90;;;;;;5138342;27;19927;-56
2022/01/16 10:52:32;;;;;;;;;;;6.10;99.90;;;;;;5132042;27;19927;-56
2022/01/16 10:55:05;;;;;;;;;;;6.20;99.90;;;;;;5126941;27;20010;-57
2022/01/16 10:57:31;;;;;;;;;;;6.20;99.90;;;;;;5125847;27;19954;-56
2022/01/16 11:00:09;;;;;;;;;;;6.20;99.90;;;;;;5136729;27;19927;-57
2022/01/16 11:02:35;;;;;;;;;;;6.30;99.90;;;;;;5131686;27;19927;-68
2022/01/16 11:05:04;;;;;;;;;;;6.30;99.90;;;;;;5127759;27;20292;-66
2022/01/16 11:07:30;;;;;;;;;;;6.40;99.90;;;;;;5141597;27;20022;-55
2022/01/16 11:09:55;;;;;;;;;;;6.40;99.90;;;;;;5135206;27;19927;-62
2022/01/16 11:12:21;;;;;;;;;;;6.50;99.90;;;;;;5143250;27;19927;-60
2022/01/16 11:14:47;;;;;;;;;;;6.50;99.90;;;;;;5132291;27;19950;-57
2022/01/16 11:17:13;;;;;;;;;;;6.50;99.90;;;;;;5136552;27;19927;-56
2022/01/16 11:19:39;;;;;;;;;;;6.60;99.90;;;;;;5136890;27;19930;-57
2022/01/16 11:22:10;;;;;;;;;;;6.60;99.90;;;;;;5133661;27;20509;-57
2022/01/16 11:24:47;;;;;;;;;;;6.60;99.90;;;;;;5137637;27;20030;-64
2022/01/16 11:27:15;;;;;;;;;;;6.60;99.90;;;;;;5138548;27;19927;-59
2022/01/16 11:29:42;;;;;;;;;;;6.60;99.90;;;;;;5138230;27;19934;-59
2022/01/16 11:32:08;;;;;;;;;;;6.60;99.90;;;;;;5130704;27;20135;-57
2022/01/16 11:34:35;;;;;;;;;;;6.60;99.90;;;;;;5143394;27;20038;-60
2022/01/16 11:37:01;;;;;;;;;;;6.70;99.90;;;;;;5127227;27;19927;-61
2022/01/16 11:39:35;;;;;;;;;;;6.70;99.90;;;;;;5129784;27;19931;-57
2022/01/16 11:42:02;;;;;;;;;;;6.70;99.90;;;;;;5138986;27;19971;-58
2022/01/16 11:44:32;;;;;;;;;;;6.70;99.90;;;;;;5131136;27;19985;-60
2022/01/16 11:47:03;;;;;;;;;;;6.70;99.90;;;;;;5143345;27;20018;-57
2022/01/16 11:49:41;;;;;;;;;;;6.70;99.90;;;;;;5134450;27;19931;-55
2022/01/16 11:52:09;;;;;;;;;;;6.70;99.90;;;;;;5134497;27;19927;-61
2022/01/16 11:54:38;;;;;;;;;;;6.70;99.90;;;;;;5138823;27;20238;-57
2022/01/16 11:57:05;;;;;;;;;;;6.70;99.90;;;;;;5130303;27;20114;-56
2022/01/16 11:59:34;;;;;;;;;;;6.70;99.90;;;;;;5139226;27;19931;-58
2022/01/16 12:02:00;;;;;;;;;;;6.70;99.90;;;;;;5139225;27;19960;-56
2022/01/16 12:04:29;;;;;;;;;;;6.70;99.90;;;;;;5141777;27;20486;-57
2022/01/16 12:07:02;;;;;;;;;;;6.70;99.90;;;;;;5129849;27;19931;-59
2022/01/16 12:09:40;;;;;;;;;;;6.70;99.90;;;;;;5135714;27;19931;-57
2022/01/16 12:12:11;;;;;;;;;;;6.70;99.90;;;;;;5135325;27;19937;-59
2022/01/16 12:15:00;;;;;;;;;;;6.70;99.90;;;;;;5130044;27;20010;-57
2022/01/16 12:17:28;;;;;;;;;;;6.70;99.90;;;;;;5124420;27;19927;-56
2022/01/16 12:19:55;;;;;;;;;;;6.80;99.90;;;;;;5137376;27;19927;-56
2022/01/16 12:22:46;;;;;;;;;;;6.90;99.90;;;;;;5128953;27;19961;-56
2022/01/16 12:25:20;;;;;;;;;;;6.80;99.90;;;;;;5131669;27;19931;-58
2022/01/16 12:27:46;;;;;;;;;;;6.80;99.90;;;;;;5135286;27;19934;-59
2022/01/16 12:30:13;;;;;;;;;;;7.10;99.90;;;;;;5130851;27;20296;-56
2022/01/16 12:32:51;;;;;;;;;;;6.80;99.90;;;;;;5124571;27;19931;-57
2022/01/16 12:35:35;;;;;;;;;;;6.90;99.90;;;;;;5126957;27;19967;-57
2022/01/16 12:38:08;;;;;;;;;;;6.90;99.90;;;;;;5138106;27;20353;-56
2022/01/16 12:40:34;;;;;;;;;;;6.80;99.90;;;;;;5140468;27;19934;-59
2022/01/16 12:43:01;;;;;;;;;;;6.80;99.90;;;;;;5125212;27;19942;-57
2022/01/16 12:45:26;;;;;;;;;;;6.80;99.90;;;;;;5133346;27;19931;-59
2022/01/16 12:47:52;;;;;;;;;;;6.90;99.90;;;;;;5132301;27;20303;-57
2022/01/16 12:50:18;;;;;;;;;;;7.30;99.90;;;;;;5136960;27;20377;-56
2022/01/16 12:52:47;;;;;;;;;;;6.90;99.90;;;;;;5129052;27;19931;-57
2022/01/16 12:55:13;;;;;;;;;;;6.90;99.90;;;;;;5142524;27;19980;-59
2022/01/16 12:57:38;;;;;;;;;;;6.90;99.90;;;;;;5136385;27;19931;-58
2022/01/16 13:00:11;;;;;;;;;;;6.90;99.90;;;;;;5134137;27;19931;-57
2022/01/16 13:02:37;;;;;;;;;;;6.90;99.90;;;;;;5136141;27;20258;-57
2022/01/16 13:05:03;;;;;;;;;;;7.50;99.90;;;;;;5131924;27;19932;-56
2022/01/16 13:07:29;;;;;;;;;;;6.90;99.90;;;;;;5129646;27;19931;-56
2022/01/16 13:09:54;;;;;;;;;;;7.00;99.90;;;;;;5132115;27;19958;-56
2022/01/16 13:12:22;;;;;;;;;;;6.90;99.90;;;;;;5143261;27;20639;-57
2022/01/16 13:14:47;;;;;;;;;;;7.00;99.90;;;;;;5135207;27;19938;-55
2022/01/16 13:17:13;;;;;;;;;;;6.90;99.90;;;;;;5134600;27;19927;-56
2022/01/16 13:19:50;;;;;;;;;;;6.90;99.90;;;;;;5130959;27;19927;-57
2022/01/16 13:22:23;;;;;;;;;;;6.90;99.90;;;;;;5131654;27;19935;-55
2022/01/16 13:25:04;;;;;;;;;;;6.90;99.90;;;;;;5137119;27;20014;-59
2022/01/16 13:27:39;;;;;;;;;;;6.90;99.90;;;;;;5133699;27;20383;-60
2022/01/16 13:30:05;;;;;;;;;;;6.90;99.90;;;;;;5142146;27;19934;-60
2022/01/16 13:32:30;;;;;;;;;;;6.80;99.90;;;;;;5131088;27;19927;-58
2022/01/16 13:34:57;;;;;;;;;;;6.80;99.90;;;;;;5141867;27;20442;-59
2022/01/16 13:37:27;;;;;;;;;;;6.80;99.90;;;;;;5137267;27;20349;-59
2022/01/16 13:39:56;;;;;;;;;;;6.80;99.90;;;;;;5132979;27;19927;-59
2022/01/16 13:42:39;;;;;;;;;;;6.80;99.90;;;;;;5141610;27;20288;-59
2022/01/16 13:45:13;;;;;;;;;;;6.80;99.90;;;;;;5133160;27;19927;-60
2022/01/16 13:47:39;;;;;;;;;;;6.80;99.90;;;;;;5140442;27;19938;-57
2022/01/16 13:50:11;;;;;;;;;;;6.80;99.90;;;;;;5142586;27;19935;-58
2022/01/16 13:52:37;;;;;;;;;;;6.80;99.90;;;;;;5132334;27;19927;-57
2022/01/16 13:55:07;;;;;;;;;;;6.90;99.90;;;;;;5131302;27;19928;-58
2022/01/16 13:57:34;;;;;;;;;;;6.80;99.90;;;;;;5135871;27;20018;-58
2022/01/16 14:00:00;;;;;;;;;;;6.80;99.90;;;;;;5134961;27;20453;-57
2022/01/16 14:02:26;;;;;;;;;;;7.10;99.90;;;;;;5144491;27;19927;-57
2022/01/16 14:04:52;;;;;;;;;;;7.30;99.90;;;;;;5145571;27;19927;-57
2022/01/16 14:07:22;;;;;;;;;;;7.00;99.90;;;;;;5134072;27;19927;-60
2022/01/16 14:09:51;;;;;;;;;;;6.90;99.90;;;;;;5137549;27;19927;-60
2022/01/16 14:12:16;;;;;;;;;;;7.00;99.90;;;;;;5133393;27;19931;-56
2022/01/16 14:14:42;;;;;;;;;;;7.00;99.90;;;;;;5141545;27;19927;-56
2022/01/16 14:22:02;;;;;;;;;;;7.00;99.90;;;;;;5135685;27;19927;-56
2022/01/16 14:24:28;;;;;;;;;;;7.00;99.90;;;;;;5137502;27;20422;-56
2022/01/16 14:26:58;;;;;;;;;;;7.00;99.90;;;;;;5144591;27;19927;-57
2022/01/16 14:29:24;;;;;;;;;;;7.00;99.90;;;;;;5128005;27;20022;-57
2022/01/16 14:31:50;;;;;;;;;;;7.00;99.90;;;;;;5128572;27;20018;-56
2022/01/16 14:34:17;;;;;;;;;;;6.90;99.90;;;;;;5132086;27;19933;-59
2022/01/16 14:36:42;;;;;;;;;;;6.90;99.90;;;;;;5136051;27;19923;-56
2022/01/16 14:39:08;;;;;;;;;;;6.90;99.90;;;;;;5130501;27;20300;-56
2022/01/16 14:41:36;;;;;;;;;;;6.90;99.90;;;;;;5135689;27;20384;-56
2022/01/16 14:44:03;;;;;;;;;;;6.90;99.90;;;;;;5129665;27;19927;-56
2022/01/16 14:46:29;;;;;;;;;;;6.80;99.90;;;;;;5130211;27;19966;-56
2022/01/16 14:48:55;;;;;;;;;;;6.70;99.90;;;;;;5136891;27;19991;-55
2022/01/16 14:51:21;;;;;;;;;;;6.70;99.90;;;;;;5140612;27;20461;-56
2022/01/16 14:53:47;;;;;;;;;;;6.70;99.90;;;;;;5135582;27;19927;-56
2022/01/16 14:56:13;;;;;;;;;;;6.80;99.90;;;;;;5144064;27;19971;-57
2022/01/16 14:58:40;;;;;;;;;;;6.80;99.90;;;;;;5130073;27;20444;-58
2022/01/16 15:01:06;;;;;;;;;;;6.80;99.90;;;;;;5142073;27;19959;-57
2022/01/16 15:03:32;;;;;;;;;;;7.00;99.90;;;;;;5134201;27;19927;-55
2022/01/16 15:05:57;;;;;;;;;;;6.70;99.90;;;;;;5137225;27;20388;-57
2022/01/16 15:08:23;;;;;;;;;;;6.80;99.90;;;;;;5131199;27;19985;-56
2022/01/16 15:10:49;;;;;;;;;;;6.70;99.90;;;;;;5143853;27;20304;-56
2022/01/16 15:13:14;;;;;;;;;;;6.70;99.90;;;;;;5132272;27;19938;-56
2022/01/16 15:15:40;;;;;;;;;;;6.90;99.90;;;;;;5138899;27;19927;-57